sensor_id;sensor_type;location;lat;lon;timestamp;pressure;altitude;pressure_sealevel;temperature;humidity
9110;BME280;4590;51.462;6.692;2022-12-07T00:01:26;101498.16;;;7.00;73.94
9110;BME280;4590;51.462;6.692;2022-12-07T00:03:53;101495.97;;;7.02;73.70
9110;BME280;4590;51.462;6.692;2022-12-07T00:06:22;101496.53;;;7.04;73.99
9110;BME280;4590;51.462;6.692;2022-12-07T00:08:47;101498.97;;;7.01;73.63
9110;BME280;4590;51.462;6.692;2022-12-07T00:11:16;101495.16;;;7.02;74.14
9110;BME280;4590;51.462;6.692;2022-12-07T00:13:42;101489.69;;;7.02;73.83
9110;BME280;4590;51.462;6.692;2022-12-07T00:16:13;101493.50;;;7.01;73.73
9110;BME280;4590;51.462;6.692;2022-12-07T00:18:39;101509.41;;;7.04;74.49
9110;BME280;4590;51.462;6.692;2022-12-07T00:21:08;101506.09;;;7.02;74.04
9110;BME280;4590;51.462;6.692;2022-12-07T00:23:34;101495.44;;;7.06;73.87
9110;BME280;4590;51.462;6.692;2022-12-07T00:26:06;101488.59;;;7.03;73.35
9110;BME280;4590;51.462;6.692;2022-12-07T00:28:32;101489.16;;;7.05;73.89
9110;BME280;4590;51.462;6.692;2022-12-07T00:31:03;101481.44;;;6.97;73.96
9110;BME280;4590;51.462;6.692;2022-12-07T00:33:30;101485.28;;;7.01;74.19
9110;BME280;4590;51.462;6.692;2022-12-07T00:35:57;101486.38;;;7.00;74.24
9110;BME280;4590;51.462;6.692;2022-12-07T00:38:22;101486.69;;;7.03;73.95
9110;BME280;4590;51.462;6.692;2022-12-07T00:40:59;101485.28;;;7.01;74.11
9110;BME280;4590;51.462;6.692;2022-12-07T00:43:25;101485.34;;;7.06;74.31
9110;BME280;4590;51.462;6.692;2022-12-07T00:45:51;101479.88;;;7.06;74.29
9110;BME280;4590;51.462;6.692;2022-12-07T00:48:16;101475.75;;;7.03;73.95
9110;BME280;4590;51.462;6.692;2022-12-07T00:50:42;101477.66;;;7.03;73.69
9110;BME280;4590;51.462;6.692;2022-12-07T00:53:07;101471.63;;;7.01;74.38
9110;BME280;4590;51.462;6.692;2022-12-07T00:55:33;101479.00;;;7.00;74.03
9110;BME280;4590;51.462;6.692;2022-12-07T00:57:59;101468.56;;;6.97;74.23
9110;BME280;4590;51.462;6.692;2022-12-07T01:00:24;101473.78;;;6.99;74.10
9110;BME280;4590;51.462;6.692;2022-12-07T01:02:49;101473.22;;;6.97;74.32
9110;BME280;4590;51.462;6.692;2022-12-07T01:05:15;101468.31;;;6.99;74.08
9110;BME280;4590;51.462;6.692;2022-12-07T01:07:40;101466.94;;;6.96;74.00
9110;BME280;4590;51.462;6.692;2022-12-07T01:10:06;101458.72;;;6.96;74.11
9110;BME280;4590;51.462;6.692;2022-12-07T01:12:32;101463.66;;;6.99;74.20
9110;BME280;4590;51.462;6.692;2022-12-07T01:14:57;101461.75;;;7.00;74.04
9110;BME280;4590;51.462;6.692;2022-12-07T01:17:22;101460.66;;;7.01;74.08
9110;BME280;4590;51.462;6.692;2022-12-07T01:19:47;101458.19;;;6.99;73.91
9110;BME280;4590;51.462;6.692;2022-12-07T01:22:13;101464.50;;;7.00;73.73
9110;BME280;4590;51.462;6.692;2022-12-07T01:24:38;101473.22;;;6.97;73.85
9110;BME280;4590;51.462;6.692;2022-12-07T01:27:03;101466.63;;;6.93;73.63
9110;BME280;4590;51.462;6.692;2022-12-07T01:29:28;101468.00;;;6.90;73.97
9110;BME280;4590;51.462;6.692;2022-12-07T01:31:54;101471.53;;;6.86;74.06
9110;BME280;4590;51.462;6.692;2022-12-07T01:34:19;101472.09;;;6.88;74.02
9110;BME280;4590;51.462;6.692;2022-12-07T01:36:44;101471.81;;;6.89;73.60
9110;BME280;4590;51.462;6.692;2022-12-07T01:39:09;101469.91;;;6.90;73.58
9110;BME280;4590;51.462;6.692;2022-12-07T01:41:38;101458.97;;;6.90;73.61
9110;BME280;4590;51.462;6.692;2022-12-07T01:46:50;101467.13;;;6.85;73.44
9110;BME280;4590;51.462;6.692;2022-12-07T01:49:39;101470.97;;;6.84;73.86
9110;BME280;4590;51.462;6.692;2022-12-07T01:52:15;101466.25;;;6.79;73.47
9110;BME280;4590;51.462;6.692;2022-12-07T01:54:43;101463.84;;;6.83;73.78
9110;BME280;4590;51.462;6.692;2022-12-07T01:57:09;101466.56;;;6.83;73.60
9110;BME280;4590;51.462;6.692;2022-12-07T01:59:36;101460.53;;;6.81;73.26
9110;BME280;4590;51.462;6.692;2022-12-07T02:02:04;101465.75;;;6.82;73.93
9110;BME280;4590;51.462;6.692;2022-12-07T02:04:33;101466.00;;;6.81;73.61
9110;BME280;4590;51.462;6.692;2022-12-07T02:06:58;101468.19;;;6.79;73.59
9110;BME280;4590;51.462;6.692;2022-12-07T02:09:24;101460.53;;;6.76;73.45
9110;BME280;4590;51.462;6.692;2022-12-07T02:11:50;101456.69;;;6.77;73.29
9110;BME280;4590;51.462;6.692;2022-12-07T02:14:16;101463.22;;;6.71;73.72
9110;BME280;4590;51.462;6.692;2022-12-07T02:16:50;101455.00;;;6.71;73.49
9110;BME280;4590;51.462;6.692;2022-12-07T02:22:42;101451.41;;;6.65;73.41
9110;BME280;4590;51.462;6.692;2022-12-07T02:28:29;101450.81;;;6.58;73.85
9110;BME280;4590;51.462;6.692;2022-12-07T02:30:54;101459.81;;;6.53;73.57
9110;BME280;4590;51.462;6.692;2022-12-07T02:33:28;101453.50;;;6.53;73.71
9110;BME280;4590;51.462;6.692;2022-12-07T02:36:12;101460.31;;;6.50;74.21
9110;BME280;4590;51.462;6.692;2022-12-07T02:38:48;101460.31;;;6.45;73.32
9110;BME280;4590;51.462;6.692;2022-12-07T02:41:22;101462.22;;;6.45;73.99
9110;BME280;4590;51.462;6.692;2022-12-07T02:43:55;101458.34;;;6.41;73.88
9110;BME280;4590;51.462;6.692;2022-12-07T02:46:30;101456.69;;;6.40;74.38
9110;BME280;4590;51.462;6.692;2022-12-07T02:48:57;101461.38;;;6.44;73.54
9110;BME280;4590;51.462;6.692;2022-12-07T02:51:24;101458.91;;;6.43;73.74
9110;BME280;4590;51.462;6.692;2022-12-07T02:53:49;101458.59;;;6.39;73.29
9110;BME280;4590;51.462;6.692;2022-12-07T02:56:29;101462.34;;;6.28;73.21
9110;BME280;4590;51.462;6.692;2022-12-07T02:59:21;101462.63;;;6.31;73.57
9110;BME280;4590;51.462;6.692;2022-12-07T03:02:22;101461.22;;;6.24;72.86
9110;BME280;4590;51.462;6.692;2022-12-07T03:12:32;101455.66;;;6.14;73.56
9110;BME280;4590;51.462;6.692;2022-12-07T03:15:11;101461.13;;;6.14;73.36
9110;BME280;4590;51.462;6.692;2022-12-07T03:17:39;101471.22;;;6.13;73.27
9110;BME280;4590;51.462;6.692;2022-12-07T03:20:08;101468.75;;;6.12;73.95
9110;BME280;4590;51.462;6.692;2022-12-07T03:22:35;101474.22;;;6.12;73.78
9110;BME280;4590;51.462;6.692;2022-12-07T03:25:06;101470.09;;;6.09;73.61
9110;BME280;4590;51.462;6.692;2022-12-07T03:27:44;101465.91;;;6.02;73.72
9110;BME280;4590;51.462;6.692;2022-12-07T03:30:17;101462.91;;;6.03;73.29
9110;BME280;4590;51.462;6.692;2022-12-07T03:35:34;101460.44;;;6.02;73.81
9110;BME280;4590;51.462;6.692;2022-12-07T03:38:22;101466.41;;;5.98;73.27
9110;BME280;4590;51.462;6.692;2022-12-07T03:41:00;101463.97;;;5.97;73.14
9110;BME280;4590;51.462;6.692;2022-12-07T03:43:29;101459.88;;;5.99;73.08
9110;BME280;4590;51.462;6.692;2022-12-07T03:46:03;101464.78;;;5.97;73.60
9110;BME280;4590;51.462;6.692;2022-12-07T03:48:38;101459.59;;;5.96;73.39
9110;BME280;4590;51.462;6.692;2022-12-07T03:51:20;101454.88;;;5.91;73.30
9110;BME280;4590;51.462;6.692;2022-12-07T03:53:52;101462.06;;;5.97;73.66
9110;BME280;4590;51.462;6.692;2022-12-07T03:56:20;101458.78;;;6.01;73.55
9110;BME280;4590;51.462;6.692;2022-12-07T03:58:47;101466.97;;;5.95;74.13
9110;BME280;4590;51.462;6.692;2022-12-07T04:01:13;101463.16;;;5.96;73.63
9110;BME280;4590;51.462;6.692;2022-12-07T04:03:38;101470.44;;;5.91;74.06
9110;BME280;4590;51.462;6.692;2022-12-07T04:06:04;101457.09;;;5.94;74.19
9110;BME280;4590;51.462;6.692;2022-12-07T04:08:29;101461.50;;;5.95;73.91
9110;BME280;4590;51.462;6.692;2022-12-07T04:10:55;101451.97;;;5.98;74.30
9110;BME280;4590;51.462;6.692;2022-12-07T04:13:20;101457.69;;;5.96;74.52
9110;BME280;4590;51.462;6.692;2022-12-07T04:15:45;101451.13;;;5.97;74.14
9110;BME280;4590;51.462;6.692;2022-12-07T04:18:10;101445.69;;;5.97;73.67
9110;BME280;4590;51.462;6.692;2022-12-07T04:20:36;101462.06;;;5.97;73.84
9110;BME280;4590;51.462;6.692;2022-12-07T04:23:01;101452.22;;;5.96;73.79
9110;BME280;4590;51.462;6.692;2022-12-07T04:25:26;101453.31;;;5.95;73.76
9110;BME280;4590;51.462;6.692;2022-12-07T04:27:52;101458.75;;;5.95;73.60
9110;BME280;4590;51.462;6.692;2022-12-07T04:30:17;101456.28;;;5.94;73.72
9110;BME280;4590;51.462;6.692;2022-12-07T04:32:42;101450.50;;;5.90;73.94
9110;BME280;4590;51.462;6.692;2022-12-07T04:35:08;101451.00;;;5.87;73.73
9110;BME280;4590;51.462;6.692;2022-12-07T04:37:33;101450.41;;;5.85;74.41
9110;BME280;4590;51.462;6.692;2022-12-07T04:39:58;101447.69;;;5.85;73.70
9110;BME280;4590;51.462;6.692;2022-12-07T04:42:24;101444.66;;;5.82;73.95
9110;BME280;4590;51.462;6.692;2022-12-07T04:44:49;101455.84;;;5.80;74.37
9110;BME280;4590;51.462;6.692;2022-12-07T04:47:15;101454.13;;;5.74;74.11
9110;BME280;4590;51.462;6.692;2022-12-07T04:49:41;101451.22;;;5.81;73.96
9110;BME280;4590;51.462;6.692;2022-12-07T04:52:06;101450.38;;;5.80;74.05
9110;BME280;4590;51.462;6.692;2022-12-07T04:54:31;101454.75;;;5.81;73.88
9110;BME280;4590;51.462;6.692;2022-12-07T04:56:56;101450.97;;;5.82;73.47
9110;BME280;4590;51.462;6.692;2022-12-07T04:59:22;101448.22;;;5.82;73.78
9110;BME280;4590;51.462;6.692;2022-12-07T05:01:47;101446.28;;;5.83;74.17
9110;BME280;4590;51.462;6.692;2022-12-07T05:04:12;101456.66;;;5.81;74.20
9110;BME280;4590;51.462;6.692;2022-12-07T05:06:38;101454.47;;;5.83;74.08
9110;BME280;4590;51.462;6.692;2022-12-07T05:09:03;101453.41;;;5.84;73.89
9110;BME280;4590;51.462;6.692;2022-12-07T05:11:29;101443.31;;;5.84;73.58
9110;BME280;4590;51.462;6.692;2022-12-07T05:16:41;101438.66;;;5.85;73.61
9110;BME280;4590;51.462;6.692;2022-12-07T05:19:07;101442.22;;;5.85;73.73
9110;BME280;4590;51.462;6.692;2022-12-07T05:21:32;101452.03;;;5.81;73.94
9110;BME280;4590;51.462;6.692;2022-12-07T05:23:57;101451.22;;;5.81;73.75
9110;BME280;4590;51.462;6.692;2022-12-07T05:26:23;101445.50;;;5.82;73.97
9110;BME280;4590;51.462;6.692;2022-12-07T10:29:39;101443.91;;;9.87;66.93
9110;BME280;4590;51.462;6.692;2022-12-07T10:34:39;101439.16;;;9.92;66.87
9110;BME280;4590;51.462;6.692;2022-12-07T10:39:42;101427.66;;;9.90;66.16
9110;BME280;4590;51.462;6.692;2022-12-07T10:42:16;101428.25;;;9.82;65.55
9110;BME280;4590;51.462;6.692;2022-12-07T10:44:41;101421.94;;;9.81;66.26
9110;BME280;4590;51.462;6.692;2022-12-07T10:47:12;101421.19;;;9.71;63.31
9110;BME280;4590;51.462;6.692;2022-12-07T10:50:01;101420.81;;;9.88;66.12
9110;BME280;4590;51.462;6.692;2022-12-07T10:52:51;101416.44;;;9.81;65.19
9110;BME280;4590;51.462;6.692;2022-12-07T10:55:48;101418.91;;;9.78;64.99
9110;BME280;4590;51.462;6.692;2022-12-07T10:58:27;101413.75;;;9.71;65.29
9110;BME280;4590;51.462;6.692;2022-12-07T11:01:04;101413.03;;;9.56;65.06
9110;BME280;4590;51.462;6.692;2022-12-07T11:06:50;101402.38;;;9.44;64.53
9110;BME280;4590;51.462;6.692;2022-12-07T11:14:52;101398.56;;;9.40;64.98
9110;BME280;4590;51.462;6.692;2022-12-07T11:17:36;101399.94;;;9.37;63.91
9110;BME280;4590;51.462;6.692;2022-12-07T11:20:34;101393.63;;;9.32;64.58
9110;BME280;4590;51.462;6.692;2022-12-07T11:31:20;101390.13;;;9.16;64.73
9110;BME280;4590;51.462;6.692;2022-12-07T11:33:53;101387.66;;;9.14;64.51
9110;BME280;4590;51.462;6.692;2022-12-07T11:38:52;101380.53;;;9.13;65.00
9110;BME280;4590;51.462;6.692;2022-12-07T11:41:39;101377.56;;;9.00;64.35
9110;BME280;4590;51.462;6.692;2022-12-07T11:44:40;101371.03;;;8.96;63.94
9110;BME280;4590;51.462;6.692;2022-12-07T11:47:17;101373.16;;;9.04;65.28
9110;BME280;4590;51.462;6.692;2022-12-07T11:55:19;101361.97;;;8.95;64.48
9110;BME280;4590;51.462;6.692;2022-12-07T11:57:50;101361.09;;;9.00;65.49
9110;BME280;4590;51.462;6.692;2022-12-07T12:00:17;101363.03;;;8.99;65.63
9110;BME280;4590;51.462;6.692;2022-12-07T12:03:03;101364.44;;;8.92;65.23
9110;BME280;4590;51.462;6.692;2022-12-07T12:05:30;101368.56;;;8.94;65.79
9110;BME280;4590;51.462;6.692;2022-12-07T12:08:06;101366.09;;;8.88;64.89
9110;BME280;4590;51.462;6.692;2022-12-07T12:10:42;101363.34;;;8.93;65.77
9110;BME280;4590;51.462;6.692;2022-12-07T12:13:21;101364.16;;;8.88;65.58
9110;BME280;4590;51.462;6.692;2022-12-07T12:18:57;101354.63;;;8.75;64.59
9110;BME280;4590;51.462;6.692;2022-12-07T12:21:29;101347.47;;;8.79;65.54
9110;BME280;4590;51.462;6.692;2022-12-07T12:24:01;101345.84;;;8.73;65.06
9110;BME280;4590;51.462;6.692;2022-12-07T12:26:32;101343.09;;;8.78;65.49
9110;BME280;4590;51.462;6.692;2022-12-07T12:34:00;101342.53;;;8.76;65.73
9110;BME280;4590;51.462;6.692;2022-12-07T12:39:13;101337.06;;;8.76;65.38
9110;BME280;4590;51.462;6.692;2022-12-07T12:47:00;101327.44;;;8.79;65.63
9110;BME280;4590;51.462;6.692;2022-12-07T12:50:20;101318.97;;;8.70;65.85
9110;BME280;4590;51.462;6.692;2022-12-07T12:52:50;101329.59;;;8.82;66.11
9110;BME280;4590;51.462;6.692;2022-12-07T12:55:18;101326.84;;;8.82;66.11
9110;BME280;4590;51.462;6.692;2022-12-07T12:57:47;101321.63;;;8.86;66.36
9110;BME280;4590;51.462;6.692;2022-12-07T13:00:32;101324.09;;;8.87;66.32
9110;BME280;4590;51.462;6.692;2022-12-07T13:02:59;101316.72;;;8.83;65.77
9110;BME280;4590;51.462;6.692;2022-12-07T13:05:30;101317.59;;;8.68;64.68
9110;BME280;4590;51.462;6.692;2022-12-07T13:08:01;101312.91;;;8.78;65.80
9110;BME280;4590;51.462;6.692;2022-12-07T13:15:39;101319.22;;;8.79;65.68
9110;BME280;4590;51.462;6.692;2022-12-07T13:20:46;101314.84;;;8.73;64.82
9110;BME280;4590;51.462;6.692;2022-12-07T13:23:12;101314.00;;;8.72;65.37
9110;BME280;4590;51.462;6.692;2022-12-07T13:25:51;101306.38;;;8.64;65.12
9110;BME280;4590;51.462;6.692;2022-12-07T13:28:20;101314.03;;;8.67;65.59
9110;BME280;4590;51.462;6.692;2022-12-07T13:30:58;101306.09;;;8.61;64.80
9110;BME280;4590;51.462;6.692;2022-12-07T13:33:28;101303.09;;;8.57;65.26
9110;BME280;4590;51.462;6.692;2022-12-07T13:35:54;101293.47;;;8.65;65.57
9110;BME280;4590;51.462;6.692;2022-12-07T13:38:31;101284.72;;;8.58;64.88
9110;BME280;4590;51.462;6.692;2022-12-07T13:41:12;101290.47;;;8.61;64.76
9110;BME280;4590;51.462;6.692;2022-12-07T13:43:46;101283.88;;;8.62;64.96
9110;BME280;4590;51.462;6.692;2022-12-07T13:46:13;101277.53;;;8.67;65.35
9110;BME280;4590;51.462;6.692;2022-12-07T13:48:47;101280.59;;;8.65;65.14
9110;BME280;4590;51.462;6.692;2022-12-07T13:51:27;101278.94;;;8.59;64.97
9110;BME280;4590;51.462;6.692;2022-12-07T13:53:56;101273.19;;;8.61;65.02
9110;BME280;4590;51.462;6.692;2022-12-07T13:56:27;101271.00;;;8.63;64.96
9110;BME280;4590;51.462;6.692;2022-12-07T13:58:56;101266.28;;;8.68;65.57
9110;BME280;4590;51.462;6.692;2022-12-07T14:01:22;101265.78;;;8.61;65.19
9110;BME280;4590;51.462;6.692;2022-12-07T14:03:48;101266.31;;;8.63;65.06
9110;BME280;4590;51.462;6.692;2022-12-07T14:06:27;101252.91;;;8.57;64.91
9110;BME280;4590;51.462;6.692;2022-12-07T14:09:19;101254.84;;;8.51;64.42
9110;BME280;4590;51.462;6.692;2022-12-07T14:11:46;101249.34;;;8.56;64.81
9110;BME280;4590;51.462;6.692;2022-12-07T14:14:32;101253.22;;;8.40;64.30
9110;BME280;4590;51.462;6.692;2022-12-07T14:17:00;101246.91;;;8.44;64.90
9110;BME280;4590;51.462;6.692;2022-12-07T14:19:50;101251.31;;;8.35;64.62
9110;BME280;4590;51.462;6.692;2022-12-07T14:22:27;101247.25;;;8.33;64.79
9110;BME280;4590;51.462;6.692;2022-12-07T14:25:21;101242.00;;;8.31;65.00
9110;BME280;4590;51.462;6.692;2022-12-07T14:27:58;101244.47;;;8.23;64.08
9110;BME280;4590;51.462;6.692;2022-12-07T14:30:29;101242.28;;;8.30;65.28
9110;BME280;4590;51.462;6.692;2022-12-07T14:32:59;101237.06;;;8.28;64.86
9110;BME280;4590;51.462;6.692;2022-12-07T14:35:25;101237.34;;;8.27;65.38
9110;BME280;4590;51.462;6.692;2022-12-07T14:37:50;101229.13;;;8.22;65.22
9110;BME280;4590;51.462;6.692;2022-12-07T14:40:22;101224.78;;;8.16;65.23
9110;BME280;4590;51.462;6.692;2022-12-07T14:42:51;101231.09;;;8.11;65.11
9110;BME280;4590;51.462;6.692;2022-12-07T14:45:21;101222.59;;;8.07;65.31
9110;BME280;4590;51.462;6.692;2022-12-07T14:47:47;101222.31;;;8.04;65.69
9110;BME280;4590;51.462;6.692;2022-12-07T14:50:15;101221.25;;;8.00;65.22
9110;BME280;4590;51.462;6.692;2022-12-07T14:52:42;101228.09;;;7.97;65.55
9110;BME280;4590;51.462;6.692;2022-12-07T14:55:35;101220.72;;;7.83;65.25
9110;BME280;4590;51.462;6.692;2022-12-07T14:58:00;101228.09;;;7.87;65.63
9110;BME280;4590;51.462;6.692;2022-12-07T15:00:27;101214.97;;;7.84;65.78
9110;BME280;4590;51.462;6.692;2022-12-07T15:02:53;101215.25;;;7.83;66.04
9110;BME280;4590;51.462;6.692;2022-12-07T15:05:19;101228.13;;;7.77;65.60
9110;BME280;4590;51.462;6.692;2022-12-07T15:07:45;101227.84;;;7.73;65.75
9110;BME280;4590;51.462;6.692;2022-12-07T15:10:20;101232.53;;;7.68;65.71
9110;BME280;4590;51.462;6.692;2022-12-07T15:12:46;101228.69;;;7.69;66.00
9110;BME280;4590;51.462;6.692;2022-12-07T15:15:12;101224.84;;;7.65;65.88
9110;BME280;4590;51.462;6.692;2022-12-07T15:17:37;101224.31;;;7.63;66.17
9110;BME280;4590;51.462;6.692;2022-12-07T15:20:03;101218.56;;;7.59;66.28
9110;BME280;4590;51.462;6.692;2022-12-07T15:22:29;101217.19;;;7.57;66.05
9110;BME280;4590;51.462;6.692;2022-12-07T15:24:56;101217.75;;;7.54;66.32
9110;BME280;4590;51.462;6.692;2022-12-07T15:27:21;101222.13;;;7.50;66.38
9110;BME280;4590;51.462;6.692;2022-12-07T15:29:47;101215.28;;;7.47;66.37
9110;BME280;4590;51.462;6.692;2022-12-07T15:32:12;101215.53;;;7.46;66.54
9110;BME280;4590;51.462;6.692;2022-12-07T15:34:37;101216.09;;;7.43;66.04
9110;BME280;4590;51.462;6.692;2022-12-07T15:37:03;101212.28;;;7.38;66.60
9110;BME280;4590;51.462;6.692;2022-12-07T15:39:28;101213.91;;;7.34;66.47
9110;BME280;4590;51.462;6.692;2022-12-07T15:41:53;101209.81;;;7.32;66.86
9110;BME280;4590;51.462;6.692;2022-12-07T15:44:18;101217.47;;;7.30;66.50
9110;BME280;4590;51.462;6.692;2022-12-07T15:47:04;101211.16;;;7.29;66.92
9110;BME280;4590;51.462;6.692;2022-12-07T15:49:29;101216.63;;;7.29;66.80
9110;BME280;4590;51.462;6.692;2022-12-07T15:51:55;101213.91;;;7.29;67.30
9110;BME280;4590;51.462;6.692;2022-12-07T15:54:25;101212.53;;;7.27;67.03
9110;BME280;4590;51.462;6.692;2022-12-07T15:56:52;101210.63;;;7.27;67.37
9110;BME280;4590;51.462;6.692;2022-12-07T15:59:18;101211.16;;;7.29;66.85
9110;BME280;4590;51.462;6.692;2022-12-07T16:01:43;101196.66;;;7.29;66.88
9110;BME280;4590;51.462;6.692;2022-12-07T16:04:08;101197.75;;;7.28;66.97
9110;BME280;4590;51.462;6.692;2022-12-07T16:06:34;101199.13;;;7.30;67.30
9110;BME280;4590;51.462;6.692;2022-12-07T16:08:59;101203.50;;;7.31;67.16
9110;BME280;4590;51.462;6.692;2022-12-07T16:11:25;101196.38;;;7.30;66.96
9110;BME280;4590;51.462;6.692;2022-12-07T16:13:51;101200.50;;;7.33;66.83
9110;BME280;4590;51.462;6.692;2022-12-07T16:16:18;101206.78;;;7.33;66.77
9110;BME280;4590;51.462;6.692;2022-12-07T16:18:45;101192.84;;;7.35;66.99
9110;BME280;4590;51.462;6.692;2022-12-07T16:21:11;101190.38;;;7.33;66.73
9110;BME280;4590;51.462;6.692;2022-12-07T16:23:36;101195.28;;;7.31;66.76
9110;BME280;4590;51.462;6.692;2022-12-07T16:26:07;101187.63;;;7.28;67.08
9110;BME280;4590;51.462;6.692;2022-12-07T16:28:33;101187.09;;;7.31;67.16
9110;BME280;4590;51.462;6.692;2022-12-07T16:31:06;101184.63;;;7.30;66.72
9110;BME280;4590;51.462;6.692;2022-12-07T16:33:36;101185.44;;;7.30;66.68
9110;BME280;4590;51.462;6.692;2022-12-07T16:36:03;101180.78;;;7.31;66.94
9110;BME280;4590;51.462;6.692;2022-12-07T16:38:28;101183.50;;;7.16;66.50
9110;BME280;4590;51.462;6.692;2022-12-07T16:40:54;101184.09;;;7.23;67.28
9110;BME280;4590;51.462;6.692;2022-12-07T16:43:22;101185.72;;;7.24;67.07
9110;BME280;4590;51.462;6.692;2022-12-07T16:45:48;101188.72;;;7.22;66.94
9110;BME280;4590;51.462;6.692;2022-12-07T16:48:14;101189.25;;;7.24;67.41
9110;BME280;4590;51.462;6.692;2022-12-07T16:50:40;101180.50;;;7.27;67.32
9110;BME280;4590;51.462;6.692;2022-12-07T16:53:06;101180.50;;;7.17;67.27
9110;BME280;4590;51.462;6.692;2022-12-07T16:55:36;101181.59;;;7.26;66.64
9110;BME280;4590;51.462;6.692;2022-12-07T16:58:01;101175.84;;;7.28;67.33
9110;BME280;4590;51.462;6.692;2022-12-07T17:00:26;101171.50;;;7.22;66.58
9110;BME280;4590;51.462;6.692;2022-12-07T17:02:51;101167.38;;;7.19;67.29
9110;BME280;4590;51.462;6.692;2022-12-07T17:05:18;101177.22;;;7.15;66.99
9110;BME280;4590;51.462;6.692;2022-12-07T17:07:43;101171.47;;;7.17;66.92
9110;BME280;4590;51.462;6.692;2022-12-07T17:10:09;101163.81;;;7.14;66.94
9110;BME280;4590;51.462;6.692;2022-12-07T17:12:34;101166.53;;;7.14;67.27
9110;BME280;4590;51.462;6.692;2022-12-07T17:14:59;101168.72;;;7.12;67.66
9110;BME280;4590;51.462;6.692;2022-12-07T17:17:50;101167.91;;;7.11;66.98
9110;BME280;4590;51.462;6.692;2022-12-07T17:20:16;101164.91;;;7.08;67.22
9110;BME280;4590;51.462;6.692;2022-12-07T17:22:42;101155.88;;;7.07;67.11
9110;BME280;4590;51.462;6.692;2022-12-07T17:25:08;101153.16;;;7.07;67.77
9110;BME280;4590;51.462;6.692;2022-12-07T17:27:34;101150.41;;;7.07;67.23
9110;BME280;4590;51.462;6.692;2022-12-07T17:29:59;101149.88;;;7.05;67.05
9110;BME280;4590;51.462;6.692;2022-12-07T17:32:25;101143.28;;;7.06;67.44
9110;BME280;4590;51.462;6.692;2022-12-07T17:34:50;101146.03;;;7.06;67.74
9110;BME280;4590;51.462;6.692;2022-12-07T17:37:16;101135.63;;;7.03;67.40
9110;BME280;4590;51.462;6.692;2022-12-07T17:39:42;101141.09;;;6.98;67.29
9110;BME280;4590;51.462;6.692;2022-12-07T17:42:08;101142.19;;;6.97;68.01
9110;BME280;4590;51.462;6.692;2022-12-07T17:44:52;101135.63;;;6.98;67.67
9110;BME280;4590;51.462;6.692;2022-12-07T17:47:17;101136.72;;;6.97;68.04
9110;BME280;4590;51.462;6.692;2022-12-07T17:49:43;101128.78;;;6.95;67.10
9110;BME280;4590;51.462;6.692;2022-12-07T17:52:11;101123.56;;;6.94;67.22
9110;BME280;4590;51.462;6.692;2022-12-07T17:54:55;101128.53;;;6.92;67.17
9110;BME280;4590;51.462;6.692;2022-12-07T17:57:20;101135.34;;;6.89;67.58
9110;BME280;4590;51.462;6.692;2022-12-07T17:59:45;101129.31;;;6.87;67.83
9110;BME280;4590;51.462;6.692;2022-12-07T18:02:11;101130.97;;;6.88;67.29
9110;BME280;4590;51.462;6.692;2022-12-07T18:04:36;101123.59;;;6.89;67.48
9110;BME280;4590;51.462;6.692;2022-12-07T18:07:04;101125.22;;;6.90;67.66
9110;BME280;4590;51.462;6.692;2022-12-07T18:09:30;101129.88;;;6.89;67.16
9110;BME280;4590;51.462;6.692;2022-12-07T18:11:56;101118.66;;;6.86;66.81
9110;BME280;4590;51.462;6.692;2022-12-07T18:14:21;101114.00;;;6.81;67.81
9110;BME280;4590;51.462;6.692;2022-12-07T18:16:46;101110.72;;;6.79;67.62
9110;BME280;4590;51.462;6.692;2022-12-07T18:19:13;101115.34;;;6.79;66.90
9110;BME280;4590;51.462;6.692;2022-12-07T18:21:41;101108.81;;;6.75;67.37
9110;BME280;4590;51.462;6.692;2022-12-07T18:24:10;101111.28;;;6.76;67.84
9110;BME280;4590;51.462;6.692;2022-12-07T18:26:36;101105.25;;;6.74;67.54
9110;BME280;4590;51.462;6.692;2022-12-07T18:29:03;101100.59;;;6.75;67.47
9110;BME280;4590;51.462;6.692;2022-12-07T18:31:28;101106.63;;;6.72;67.64
9110;BME280;4590;51.462;6.692;2022-12-07T18:33:54;101098.94;;;6.68;68.55
9110;BME280;4590;51.462;6.692;2022-12-07T18:36:20;101110.16;;;6.72;67.72
9110;BME280;4590;51.462;6.692;2022-12-07T18:38:46;101095.13;;;6.69;67.87
9110;BME280;4590;51.462;6.692;2022-12-07T18:41:13;101094.03;;;6.71;68.16
9110;BME280;4590;51.462;6.692;2022-12-07T18:43:40;101097.31;;;6.67;68.43
9110;BME280;4590;51.462;6.692;2022-12-07T18:46:13;101095.63;;;6.61;67.74
9110;BME280;4590;51.462;6.692;2022-12-07T18:48:38;101095.09;;;6.64;68.38
9110;BME280;4590;51.462;6.692;2022-12-07T18:51:08;101094.84;;;6.66;68.00
9110;BME280;4590;51.462;6.692;2022-12-07T18:53:34;101090.47;;;6.65;68.20
9110;BME280;4590;51.462;6.692;2022-12-07T18:56:20;101089.38;;;6.66;67.90
9110;BME280;4590;51.462;6.692;2022-12-07T18:58:54;101088.81;;;6.64;68.32
9110;BME280;4590;51.462;6.692;2022-12-07T19:01:41;101090.47;;;6.65;68.70
9110;BME280;4590;51.462;6.692;2022-12-07T19:04:07;101096.75;;;6.65;68.42
9110;BME280;4590;51.462;6.692;2022-12-07T19:06:32;101097.56;;;6.66;68.87
9110;BME280;4590;51.462;6.692;2022-12-07T19:08:58;101105.50;;;6.67;68.69
9110;BME280;4590;51.462;6.692;2022-12-07T19:11:26;101103.06;;;6.61;68.58
9110;BME280;4590;51.462;6.692;2022-12-07T19:14:11;101100.03;;;6.62;68.80
9110;BME280;4590;51.462;6.692;2022-12-07T19:16:37;101092.63;;;6.63;68.94
9110;BME280;4590;51.462;6.692;2022-12-07T19:19:03;101086.91;;;6.59;68.72
9110;BME280;4590;51.462;6.692;2022-12-07T19:21:29;101087.44;;;6.61;68.97
9110;BME280;4590;51.462;6.692;2022-12-07T19:23:54;101092.38;;;6.59;68.73
9110;BME280;4590;51.462;6.692;2022-12-07T19:26:20;101080.63;;;6.59;68.87
9110;BME280;4590;51.462;6.692;2022-12-07T19:28:45;101089.38;;;6.56;68.20
9110;BME280;4590;51.462;6.692;2022-12-07T19:31:11;101084.72;;;6.56;68.97
9110;BME280;4590;51.462;6.692;2022-12-07T19:33:37;101084.72;;;6.56;69.01
9110;BME280;4590;51.462;6.692;2022-12-07T19:36:03;101080.91;;;6.57;69.06
9110;BME280;4590;51.462;6.692;2022-12-07T19:38:29;101081.44;;;6.54;69.24
9110;BME280;4590;51.462;6.692;2022-12-07T19:41:05;101086.34;;;6.52;68.39
9110;BME280;4590;51.462;6.692;2022-12-07T19:43:33;101078.69;;;6.54;69.56
9110;BME280;4590;51.462;6.692;2022-12-07T19:46:05;101081.16;;;6.51;68.97
9110;BME280;4590;51.462;6.692;2022-12-07T19:48:31;101074.31;;;6.53;68.50
9110;BME280;4590;51.462;6.692;2022-12-07T19:51:01;101071.31;;;6.50;68.64
9110;BME280;4590;51.462;6.692;2022-12-07T19:53:31;101065.28;;;6.53;69.25